Time;durP1;ratioP1;P1;durP2;ratioP2;P2;SDS_P1;SDS_P2;PMS_P1;PMS_P2;Temp;Humidity;BMP_temperature;BMP_pressure;BME280_temperature;BME280_humidity;BME280_pressure;Samples;Min_cycle;Max_cycle;Signal;HPM_P1;HPM_P2
2023/09/17 00:01:50;;;;;;;9.02;8.05;;;;;;;;;;5006993;28;98498;-69
2023/09/17 00:04:17;;;;;;;9.75;8.82;;;;;;;;;;5006894;28;100031;-69
2023/09/17 00:06:44;;;;;;;8.73;7.97;;;;;;;;;;5008167;28;98398;-70
2023/09/17 00:09:10;;;;;;;9.48;8.43;;;;;;;;;;5007846;28;99720;-70
2023/09/17 00:11:37;;;;;;;11.35;8.48;;;;;;;;;;5007063;28;98918;-70
2023/09/17 00:14:03;;;;;;;8.75;8.05;;;;;;;;;;5006146;28;98691;-69
2023/09/17 00:16:31;;;;;;;9.75;8.57;;;;;;;;;;5006270;28;99310;-70
2023/09/17 00:18:58;;;;;;;8.68;7.97;;;;;;;;;;5009616;28;101253;-69
2023/09/17 00:21:25;;;;;;;9.52;8.70;;;;;;;;;;5006572;28;98701;-69
2023/09/17 00:23:51;;;;;;;9.43;8.18;;;;;;;;;;5006679;28;99887;-69
2023/09/17 00:26:18;;;;;;;10.50;8.75;;;;;;;;;;5006369;28;98696;-68
2023/09/17 00:28:45;;;;;;;9.52;7.85;;;;;;;;;;5006207;28;99020;-69
2023/09/17 00:31:11;;;;;;;9.35;8.18;;;;;;;;;;5006604;28;98913;-69
2023/09/17 00:33:38;;;;;;;11.00;8.25;;;;;;;;;;5004310;28;98821;-69
2023/09/17 00:36:05;;;;;;;9.73;7.72;;;;;;;;;;5006761;28;99410;-69
2023/09/17 00:38:31;;;;;;;11.77;10.48;;;;;;;;;;5005827;28;99281;-69
2023/09/17 00:41:01;;;;;;;9.25;7.80;;;;;;;;;;5009567;28;98333;-69
2023/09/17 00:43:30;;;;;;;10.75;8.90;;;;;;;;;;5003845;28;101255;-70
2023/09/17 00:45:56;;;;;;;10.48;8.70;;;;;;;;;;5007000;28;98229;-69
2023/09/17 00:48:24;;;;;;;13.38;9.15;;;;;;;;;;5005369;28;99285;-69
2023/09/17 00:50:51;;;;;;;8.50;7.80;;;;;;;;;;5039113;27;100015;-69
2023/09/17 00:53:17;;;;;;;9.02;8.27;;;;;;;;;;5005664;28;98231;-70
2023/09/17 00:55:44;;;;;;;8.77;8.05;;;;;;;;;;5004502;28;98803;-70
2023/09/17 00:58:10;;;;;;;10.25;8.80;;;;;;;;;;5006570;28;98989;-69
2023/09/17 01:00:38;;;;;;;9.95;9.05;;;;;;;;;;5006259;28;98283;-69
2023/09/17 01:03:06;;;;;;;9.98;8.93;;;;;;;;;;5010871;28;98422;-70
2023/09/17 01:05:38;;;;;;;12.32;9.52;;;;;;;;;;5008598;28;98473;-70
2023/09/17 01:08:05;;;;;;;12.55;8.32;;;;;;;;;;5006302;28;98422;-70
2023/09/17 01:10:39;;;;;;;13.82;9.48;;;;;;;;;;5006329;28;99015;-70
2023/09/17 01:13:06;;;;;;;9.30;8.40;;;;;;;;;;5004737;28;98209;-70
2023/09/17 01:15:34;;;;;;;9.63;8.50;;;;;;;;;;5005649;28;98877;-70
2023/09/17 01:18:05;;;;;;;9.85;8.15;;;;;;;;;;5004957;28;99243;-70
2023/09/17 01:20:33;;;;;;;9.68;8.75;;;;;;;;;;5001784;28;98297;-69
2023/09/17 01:23:03;;;;;;;10.48;9.45;;;;;;;;;;5006334;28;98466;-69
2023/09/17 01:25:42;;;;;;;10.65;9.27;;;;;;;;;;5011985;28;98236;-69
2023/09/17 01:28:11;;;;;;;11.38;9.80;;;;;;;;;;5007986;28;100426;-69
2023/09/17 01:30:41;;;;;;;9.90;9.00;;;;;;;;;;5008562;28;98703;-69
2023/09/17 01:33:11;;;;;;;10.95;9.85;;;;;;;;;;5008506;28;98690;-69
2023/09/17 01:36:01;;;;;;;10.10;9.10;;;;;;;;;;5010645;28;98773;-70
2023/09/17 01:38:32;;;;;;;10.48;9.38;;;;;;;;;;4974074;28;99032;-70
2023/09/17 01:41:02;;;;;;;12.50;9.85;;;;;;;;;;4999374;28;98634;-70
2023/09/17 01:43:30;;;;;;;12.55;9.68;;;;;;;;;;5008091;27;98890;-70
2023/09/17 01:46:00;;;;;;;11.48;10.13;;;;;;;;;;5011348;28;102510;-70
2023/09/17 01:48:27;;;;;;;10.13;9.20;;;;;;;;;;5007398;28;99498;-69
2023/09/17 01:50:54;;;;;;;10.63;9.40;;;;;;;;;;5006822;28;99437;-69
2023/09/17 01:53:21;;;;;;;10.40;9.40;;;;;;;;;;5009499;28;98250;-70
2023/09/17 01:55:52;;;;;;;12.07;9.82;;;;;;;;;;5009637;28;98437;-69
2023/09/17 01:58:21;;;;;;;12.10;9.50;;;;;;;;;;5040829;27;99444;-70
2023/09/17 02:00:49;;;;;;;11.65;9.85;;;;;;;;;;5043242;27;98597;-70
2023/09/17 02:03:15;;;;;;;10.40;9.27;;;;;;;;;;5008128;28;98826;-69
2023/09/17 02:05:42;;;;;;;13.77;10.77;;;;;;;;;;5006959;28;99990;-70
2023/09/17 02:08:09;;;;;;;12.07;9.65;;;;;;;;;;5011919;28;98630;-70
2023/09/17 02:10:35;;;;;;;12.10;10.90;;;;;;;;;;5008951;28;98776;-68
2023/09/17 02:13:02;;;;;;;10.85;9.80;;;;;;;;;;5002877;28;98792;-71
2023/09/17 02:15:29;;;;;;;11.77;9.57;;;;;;;;;;5008108;28;98680;-69
2023/09/17 02:17:55;;;;;;;10.30;9.30;;;;;;;;;;5039657;27;100116;-70
2023/09/17 02:20:22;;;;;;;16.02;9.73;;;;;;;;;;5005557;28;98553;-70
2023/09/17 02:22:48;;;;;;;12.50;10.27;;;;;;;;;;5007948;28;98951;-69
2023/09/17 02:25:15;;;;;;;12.48;9.70;;;;;;;;;;5005925;28;99173;-69
2023/09/17 02:27:41;;;;;;;11.70;10.40;;;;;;;;;;5007115;28;98698;-69
2023/09/17 02:30:08;;;;;;;11.25;10.13;;;;;;;;;;5010645;28;98951;-69
2023/09/17 02:32:37;;;;;;;11.27;9.40;;;;;;;;;;5004789;28;98298;-68
2023/09/17 02:35:07;;;;;;;11.95;9.80;;;;;;;;;;5006863;28;99133;-69
2023/09/17 02:37:34;;;;;;;12.25;9.63;;;;;;;;;;5006924;28;101414;-70
2023/09/17 02:40:00;;;;;;;10.35;9.32;;;;;;;;;;5006942;28;98693;-68
2023/09/17 02:42:28;;;;;;;12.32;10.25;;;;;;;;;;5006781;28;98447;-68
2023/09/17 02:44:56;;;;;;;9.68;8.75;;;;;;;;;;5005562;28;101059;-69
2023/09/17 02:47:22;;;;;;;11.82;9.65;;;;;;;;;;5013851;28;98296;-69
2023/09/17 02:49:49;;;;;;;11.55;10.13;;;;;;;;;;5006544;28;99276;-69
2023/09/17 02:52:15;;;;;;;11.55;10.35;;;;;;;;;;5010167;28;99286;-68
2023/09/17 02:54:48;;;;;;;11.73;10.60;;;;;;;;;;5005213;28;99664;-70
2023/09/17 02:57:14;;;;;;;14.50;11.07;;;;;;;;;;5005653;28;98719;-68
2023/09/17 02:59:41;;;;;;;13.75;9.85;;;;;;;;;;5006046;28;98903;-70
2023/09/17 03:02:07;;;;;;;9.98;8.98;;;;;;;;;;5005626;28;101021;-69
2023/09/17 03:04:36;;;;;;;10.57;9.52;;;;;;;;;;5005420;28;101276;-71
2023/09/17 03:07:04;;;;;;;10.85;9.75;;;;;;;;;;5005504;28;98947;-69
2023/09/17 03:09:30;;;;;;;11.27;10.13;;;;;;;;;;5004276;28;99715;-69
2023/09/17 03:11:57;;;;;;;10.77;9.70;;;;;;;;;;5006616;28;100171;-71
2023/09/17 03:14:24;;;;;;;11.02;9.93;;;;;;;;;;4967040;28;1195189;-69
2023/09/17 03:16:51;;;;;;;10.65;9.55;;;;;;;;;;5007557;28;100711;-68
2023/09/17 03:19:19;;;;;;;12.80;10.15;;;;;;;;;;5006483;28;98237;-70
2023/09/17 03:21:46;;;;;;;11.18;9.93;;;;;;;;;;5005913;28;101001;-69
2023/09/17 03:24:15;;;;;;;10.65;9.55;;;;;;;;;;5005233;28;101963;-70
2023/09/17 03:26:42;;;;;;;13.18;9.88;;;;;;;;;;5031874;27;98615;-70
2023/09/17 03:29:08;;;;;;;14.55;9.63;;;;;;;;;;5006244;28;99840;-69
2023/09/17 03:31:36;;;;;;;13.00;9.27;;;;;;;;;;5007268;28;99897;-69
2023/09/17 03:34:07;;;;;;;10.80;9.82;;;;;;;;;;5010117;28;98218;-69
2023/09/17 03:36:37;;;;;;;10.93;9.82;;;;;;;;;;5006216;28;98832;-69
2023/09/17 03:39:08;;;;;;;11.68;10.32;;;;;;;;;;5007166;28;98392;-69
2023/09/17 03:41:39;;;;;;;11.60;10.35;;;;;;;;;;5007242;28;98370;-69
2023/09/17 03:44:09;;;;;;;11.68;10.40;;;;;;;;;;5004506;28;101352;-70
2023/09/17 03:46:37;;;;;;;12.73;10.90;;;;;;;;;;5005322;28;98357;-70
2023/09/17 03:49:03;;;;;;;15.68;10.57;;;;;;;;;;5006036;28;100647;-70
2023/09/17 03:51:30;;;;;;;12.40;11.10;;;;;;;;;;5004174;28;98182;-70
2023/09/17 03:53:58;;;;;;;14.45;11.75;;;;;;;;;;5004897;28;98519;-70
2023/09/17 03:56:25;;;;;;;12.43;11.23;;;;;;;;;;5010376;28;99456;-70
2023/09/17 03:58:54;;;;;;;13.55;11.77;;;;;;;;;;5006843;28;98213;-70
2023/09/17 04:01:22;;;;;;;13.70;12.40;;;;;;;;;;5005749;28;98572;-69
2023/09/17 04:03:49;;;;;;;13.60;11.80;;;;;;;;;;5007274;28;98729;-70
2023/09/17 04:06:18;;;;;;;16.48;11.57;;;;;;;;;;5004655;28;98262;-70
2023/09/17 04:08:44;;;;;;;11.60;10.40;;;;;;;;;;5007699;28;98459;-70
2023/09/17 04:11:15;;;;;;;13.10;11.75;;;;;;;;;;5004718;28;98902;-70
2023/09/17 04:13:43;;;;;;;13.27;11.93;;;;;;;;;;5005518;28;98778;-71
2023/09/17 04:16:10;;;;;;;16.00;11.60;;;;;;;;;;5006896;28;98492;-70
2023/09/17 04:18:37;;;;;;;13.25;11.77;;;;;;;;;;5006525;28;100986;-70
2023/09/17 04:21:03;;;;;;;16.77;11.60;;;;;;;;;;5007506;28;98485;-70
2023/09/17 04:23:30;;;;;;;14.80;13.27;;;;;;;;;;5004787;28;100428;-69
2023/09/17 04:25:56;;;;;;;16.52;14.02;;;;;;;;;;5006518;28;98218;-70
2023/09/17 04:28:23;;;;;;;17.00;13.65;;;;;;;;;;5006951;28;98877;-69
2023/09/17 04:30:49;;;;;;;16.27;14.55;;;;;;;;;;5005002;28;100409;-69
2023/09/17 04:33:16;;;;;;;22.17;16.23;;;;;;;;;;5003908;28;98442;-69
2023/09/17 04:35:43;;;;;;;19.67;16.05;;;;;;;;;;5005030;28;99558;-71
2023/09/17 04:38:10;;;;;;;18.85;15.90;;;;;;;;;;5004985;28;102394;-69
2023/09/17 04:40:36;;;;;;;22.45;16.52;;;;;;;;;;5008211;28;98239;-69
2023/09/17 04:43:07;;;;;;;21.48;16.95;;;;;;;;;;5004907;28;100075;-70
2023/09/17 04:45:33;;;;;;;20.88;17.45;;;;;;;;;;5005358;28;98375;-70
2023/09/17 04:48:03;;;;;;;31.42;18.10;;;;;;;;;;5004447;28;98574;-70
2023/09/17 04:50:30;;;;;;;23.65;18.83;;;;;;;;;;5004295;28;101465;-70
2023/09/17 04:52:57;;;;;;;22.95;17.48;;;;;;;;;;5006003;28;98264;-70
2023/09/17 04:55:24;;;;;;;25.95;19.17;;;;;;;;;;5005152;28;100735;-70
2023/09/17 04:57:52;;;;;;;23.48;20.70;;;;;;;;;;5005025;28;101417;-70
2023/09/17 05:00:20;;;;;;;24.58;19.08;;;;;;;;;;5004929;28;98473;-70
2023/09/17 05:02:48;;;;;;;27.88;19.15;;;;;;;;;;5009822;28;98232;-70
2023/09/17 05:05:18;;;;;;;26.90;18.85;;;;;;;;;;5004427;28;99212;-70
2023/09/17 05:07:48;;;;;;;22.10;18.83;;;;;;;;;;5003955;28;98622;-71
2023/09/17 05:10:15;;;;;;;24.38;19.98;;;;;;;;;;5004280;28;102008;-70
2023/09/17 05:12:42;;;;;;;24.23;19.20;;;;;;;;;;5004792;28;98212;-70
2023/09/17 05:15:09;;;;;;;27.33;20.65;;;;;;;;;;5004752;28;99391;-71
2023/09/17 05:17:36;;;;;;;27.35;21.05;;;;;;;;;;5004065;28;102326;-70
2023/09/17 05:20:06;;;;;;;32.08;20.95;;;;;;;;;;5005252;28;100203;-70
2023/09/17 05:22:33;;;;;;;26.15;18.67;;;;;;;;;;5003032;28;100972;-71
2023/09/17 05:25:01;;;;;;;26.80;20.52;;;;;;;;;;5007283;28;101240;-70
2023/09/17 05:27:28;;;;;;;25.33;19.27;;;;;;;;;;5005634;28;98326;-71
2023/09/17 05:29:54;;;;;;;25.50;21.20;;;;;;;;;;5003935;28;101644;-72
2023/09/17 05:32:21;;;;;;;35.33;20.83;;;;;;;;;;5004246;28;98303;-71
2023/09/17 05:34:48;;;;;;;27.02;20.65;;;;;;;;;;5005203;28;101206;-73
2023/09/17 05:37:15;;;;;;;30.10;21.55;;;;;;;;;;5003259;28;100075;-74
2023/09/17 05:39:43;;;;;;;24.52;20.27;;;;;;;;;;5004553;28;100606;-72
2023/09/17 05:42:10;;;;;;;29.15;20.10;;;;;;;;;;5004612;28;100735;-75
2023/09/17 05:44:36;;;;;;;26.40;20.85;;;;;;;;;;5008140;28;99951;-74
2023/09/17 05:47:03;;;;;;;29.65;20.85;;;;;;;;;;5005062;28;101056;-75
2023/09/17 05:49:31;;;;;;;38.10;21.88;;;;;;;;;;5003595;28;101525;-74
2023/09/17 05:51:59;;;;;;;41.60;22.08;;;;;;;;;;4998241;28;98221;-76
2023/09/17 05:54:26;;;;;;;29.33;21.17;;;;;;;;;;5003945;28;100525;-75
2023/09/17 05:56:53;;;;;;;26.65;21.40;;;;;;;;;;5003358;28;102120;-75
2023/09/17 05:59:20;;;;;;;28.52;19.58;;;;;;;;;;5003947;28;98128;-75
2023/09/17 06:01:48;;;;;;;44.92;22.40;;;;;;;;;;5003814;28;101375;-74
2023/09/17 06:04:15;;;;;;;31.92;21.58;;;;;;;;;;5003091;28;100097;-75
2023/09/17 06:06:41;;;;;;;28.88;20.90;;;;;;;;;;5009036;28;98433;-75
2023/09/17 06:09:10;;;;;;;38.13;21.60;;;;;;;;;;5008614;28;99290;-75
2023/09/17 06:11:37;;;;;;;32.85;22.75;;;;;;;;;;5007508;28;99590;-76
2023/09/17 06:14:03;;;;;;;32.15;22.17;;;;;;;;;;4998785;28;100902;-77
2023/09/17 06:16:33;;;;;;;29.15;22.63;;;;;;;;;;5010310;28;101696;-76
2023/09/17 06:19:20;;;;;;;29.83;20.33;;;;;;;;;;5001234;28;98309;-74
2023/09/17 06:21:46;;;;;;;36.70;22.45;;;;;;;;;;5009349;28;98716;-77
2023/09/17 06:24:13;;;;;;;28.38;21.52;;;;;;;;;;5009111;28;100132;-78
2023/09/17 06:26:40;;;;;;;38.13;22.60;;;;;;;;;;5006245;28;99301;-78
2023/09/17 06:29:07;;;;;;;43.67;24.27;;;;;;;;;;5012233;28;98385;-78
2023/09/17 06:31:34;;;;;;;38.28;23.50;;;;;;;;;;5008635;28;98223;-77
2023/09/17 06:34:00;;;;;;;37.33;22.65;;;;;;;;;;5006957;28;101145;-77
2023/09/17 06:36:27;;;;;;;34.78;23.13;;;;;;;;;;5006728;28;98926;-76
2023/09/17 06:38:55;;;;;;;35.22;22.70;;;;;;;;;;5005936;28;98283;-77
2023/09/17 06:41:23;;;;;;;38.67;24.52;;;;;;;;;;5007534;28;101042;-75
2023/09/17 06:43:50;;;;;;;40.70;23.75;;;;;;;;;;5008580;28;100027;-76
2023/09/17 06:46:21;;;;;;;30.55;22.38;;;;;;;;;;5007437;28;98319;-75
2023/09/17 06:48:48;;;;;;;33.88;21.98;;;;;;;;;;5009082;28;98583;-75
2023/09/17 06:51:14;;;;;;;40.22;25.27;;;;;;;;;;5011015;28;99093;-76
2023/09/17 06:53:41;;;;;;;43.83;25.67;;;;;;;;;;5007838;28;99369;-77
2023/09/17 06:56:10;;;;;;;38.42;24.85;;;;;;;;;;5008205;28;98913;-74
2023/09/17 06:58:37;;;;;;;41.88;24.35;;;;;;;;;;5008173;28;98243;-75
2023/09/17 07:01:04;;;;;;;40.70;24.98;;;;;;;;;;5007226;28;99093;-76
2023/09/17 07:03:30;;;;;;;42.88;25.98;;;;;;;;;;5006698;28;99935;-74
2023/09/17 07:05:58;;;;;;;42.90;25.17;;;;;;;;;;5008407;28;98355;-75
2023/09/17 07:08:25;;;;;;;34.80;22.45;;;;;;;;;;5006700;28;99667;-76
2023/09/17 07:10:51;;;;;;;37.50;23.38;;;;;;;;;;5008204;28;100294;-74
2023/09/17 07:13:17;;;;;;;38.92;24.80;;;;;;;;;;5010103;28;98775;-75
2023/09/17 07:15:44;;;;;;;39.38;25.80;;;;;;;;;;5007457;28;100384;-74
2023/09/17 07:18:12;;;;;;;43.08;24.35;;;;;;;;;;5006310;28;99007;-75
2023/09/17 07:20:39;;;;;;;39.42;22.67;;;;;;;;;;5008293;28;98538;-72
2023/09/17 07:23:05;;;;;;;30.77;19.95;;;;;;;;;;5007401;28;99110;-72
2023/09/17 07:25:31;;;;;;;50.85;25.50;;;;;;;;;;5007120;28;98259;-73
2023/09/17 07:28:04;;;;;;;42.60;25.08;;;;;;;;;;5007276;28;99632;-74
2023/09/17 07:30:31;;;;;;;38.13;24.60;;;;;;;;;;5007347;28;100325;-73
2023/09/17 07:32:58;;;;;;;42.38;25.17;;;;;;;;;;5008708;28;98236;-74
2023/09/17 07:35:25;;;;;;;42.33;24.02;;;;;;;;;;5009458;28;98526;-75
2023/09/17 07:37:51;;;;;;;40.70;24.70;;;;;;;;;;5006891;28;98298;-74
2023/09/17 07:40:18;;;;;;;42.63;24.92;;;;;;;;;;5007468;28;99346;-74
2023/09/17 07:42:45;;;;;;;36.95;24.55;;;;;;;;;;5006330;28;99931;-72
2023/09/17 07:45:13;;;;;;;47.75;25.48;;;;;;;;;;5007853;28;98287;-72
2023/09/17 07:47:40;;;;;;;40.95;25.10;;;;;;;;;;5007539;28;99024;-72
2023/09/17 07:50:07;;;;;;;44.55;24.60;;;;;;;;;;5006366;28;98783;-73
2023/09/17 07:52:33;;;;;;;39.67;24.02;;;;;;;;;;5005750;28;98703;-73
2023/09/17 07:55:00;;;;;;;44.10;22.95;;;;;;;;;;5010377;28;99778;-72
2023/09/17 07:57:27;;;;;;;46.72;24.40;;;;;;;;;;5005434;28;98549;-73
2023/09/17 07:59:53;;;;;;;37.95;21.58;;;;;;;;;;5008173;27;99180;-73
2023/09/17 08:02:20;;;;;;;27.58;19.02;;;;;;;;;;5006533;28;99886;-73
2023/09/17 08:04:46;;;;;;;37.92;22.83;;;;;;;;;;5005959;28;98117;-73
2023/09/17 08:07:13;;;;;;;45.83;23.65;;;;;;;;;;5006940;28;98765;-75
2023/09/17 08:09:40;;;;;;;37.08;22.67;;;;;;;;;;5006863;28;98995;-74
2023/09/17 08:12:06;;;;;;;37.92;24.17;;;;;;;;;;5006223;28;98215;-74
2023/09/17 08:14:34;;;;;;;37.75;23.90;;;;;;;;;;5006819;28;99535;-74
2023/09/17 08:17:02;;;;;;;36.15;22.58;;;;;;;;;;5008602;28;99932;-74
2023/09/17 08:19:29;;;;;;;32.75;20.65;;;;;;;;;;5005896;28;98933;-73
2023/09/17 08:21:56;;;;;;;42.80;24.13;;;;;;;;;;5006253;28;100109;-74
2023/09/17 08:24:25;;;;;;;40.75;24.30;;;;;;;;;;5006262;28;98480;-73
2023/09/17 08:26:54;;;;;;;39.15;24.95;;;;;;;;;;5006595;28;99427;-73
2023/09/17 08:29:21;;;;;;;38.13;24.67;;;;;;;;;;5006213;28;99564;-73
2023/09/17 08:31:48;;;;;;;46.22;24.85;;;;;;;;;;5005569;28;98393;-72
2023/09/17 08:34:14;;;;;;;36.97;24.60;;;;;;;;;;5006814;28;98780;-73
2023/09/17 08:36:41;;;;;;;43.88;25.20;;;;;;;;;;5006674;28;100132;-73
2023/09/17 08:39:07;;;;;;;38.80;24.70;;;;;;;;;;5009083;28;98304;-73
2023/09/17 08:41:35;;;;;;;41.42;25.33;;;;;;;;;;5005155;28;100086;-73
2023/09/17 08:44:04;;;;;;;39.38;26.85;;;;;;;;;;5006435;28;98301;-74
2023/09/17 08:46:30;;;;;;;44.70;26.15;;;;;;;;;;5005659;28;99673;-73
2023/09/17 08:48:58;;;;;;;38.80;25.05;;;;;;;;;;5006206;28;99960;-73
2023/09/17 08:51:26;;;;;;;38.85;24.77;;;;;;;;;;5005916;28;98300;-73
2023/09/17 08:53:56;;;;;;;35.85;23.67;;;;;;;;;;5006163;28;99160;-73
2023/09/17 08:56:23;;;;;;;39.80;22.58;;;;;;;;;;4998327;28;98966;-73
2023/09/17 08:58:52;;;;;;;36.83;22.52;;;;;;;;;;5006640;28;98311;-74
2023/09/17 09:01:22;;;;;;;35.10;22.67;;;;;;;;;;5008642;28;100183;-73
2023/09/17 09:03:51;;;;;;;27.73;21.85;;;;;;;;;;5005618;28;98287;-73
2023/09/17 09:06:19;;;;;;;30.13;21.33;;;;;;;;;;5005376;28;98435;-73
2023/09/17 09:08:47;;;;;;;36.47;21.88;;;;;;;;;;5005610;28;99044;-73
2023/09/17 09:11:14;;;;;;;24.13;18.02;;;;;;;;;;5005852;28;98746;-73
2023/09/17 09:13:41;;;;;;;29.77;18.23;;;;;;;;;;5004527;28;99575;-73
2023/09/17 09:16:07;;;;;;;29.55;19.95;;;;;;;;;;5005591;28;99042;-73
2023/09/17 09:18:35;;;;;;;26.45;19.73;;;;;;;;;;5005621;28;98316;-74
2023/09/17 09:21:01;;;;;;;27.45;18.92;;;;;;;;;;5005242;28;99478;-73
2023/09/17 09:23:28;;;;;;;27.77;20.85;;;;;;;;;;5008559;28;99104;-73
2023/09/17 09:25:54;;;;;;;30.10;20.77;;;;;;;;;;5006048;28;99297;-73
2023/09/17 09:28:21;;;;;;;31.20;20.90;;;;;;;;;;5005067;28;100274;-73
2023/09/17 09:30:47;;;;;;;31.52;20.73;;;;;;;;;;5005116;28;98278;-73
2023/09/17 09:33:16;;;;;;;23.98;17.65;;;;;;;;;;5005540;28;99892;-73
2023/09/17 09:35:43;;;;;;;27.80;21.00;;;;;;;;;;4996999;28;100006;-74
2023/09/17 09:38:10;;;;;;;30.00;20.50;;;;;;;;;;5005944;28;98744;-74
2023/09/17 09:40:38;;;;;;;32.60;22.27;;;;;;;;;;5006133;28;100103;-73
2023/09/17 09:43:04;;;;;;;36.35;23.67;;;;;;;;;;5008520;28;99284;-74
2023/09/17 09:45:36;;;;;;;38.70;24.25;;;;;;;;;;5012176;28;99350;-73
2023/09/17 09:48:12;;;;;;;37.05;25.55;;;;;;;;;;5009623;28;98948;-73
2023/09/17 09:50:38;;;;;;;40.05;24.80;;;;;;;;;;5008804;28;98320;-74
2023/09/17 09:53:05;;;;;;;48.65;25.55;;;;;;;;;;5008732;28;98596;-74
2023/09/17 09:55:32;;;;;;;40.28;25.73;;;;;;;;;;5007938;28;100710;-74
2023/09/17 09:57:59;;;;;;;41.30;25.05;;;;;;;;;;5008429;28;98955;-74
2023/09/17 10:00:26;;;;;;;42.53;25.88;;;;;;;;;;5009038;28;98612;-74
2023/09/17 10:02:53;;;;;;;38.83;25.13;;;;;;;;;;5004141;28;100117;-74
2023/09/17 10:05:33;;;;;;;38.88;24.67;;;;;;;;;;5012320;28;98321;-74
2023/09/17 10:08:06;;;;;;;44.08;27.98;;;;;;;;;;5005718;28;99598;-74
2023/09/17 10:10:34;;;;;;;43.10;25.80;;;;;;;;;;5007402;28;98301;-74
2023/09/17 10:13:04;;;;;;;43.20;27.67;;;;;;;;;;5004608;28;99502;-74
2023/09/17 10:15:31;;;;;;;41.05;26.20;;;;;;;;;;5008176;28;99102;-74
2023/09/17 10:17:59;;;;;;;48.45;29.00;;;;;;;;;;5007400;28;99772;-74
2023/09/17 10:20:26;;;;;;;44.65;28.25;;;;;;;;;;5004281;28;99706;-74
2023/09/17 10:22:53;;;;;;;39.63;25.15;;;;;;;;;;5008032;28;100812;-74
2023/09/17 10:25:20;;;;;;;45.78;27.33;;;;;;;;;;5007752;28;98347;-73
2023/09/17 10:27:49;;;;;;;34.65;24.92;;;;;;;;;;5011500;28;99573;-73
2023/09/17 10:30:17;;;;;;;35.25;24.33;;;;;;;;;;5009329;28;99039;-74
2023/09/17 10:32:46;;;;;;;38.92;26.50;;;;;;;;;;5003030;28;99668;-73
2023/09/17 10:35:17;;;;;;;46.03;27.55;;;;;;;;;;5002036;27;98984;-75
2023/09/17 10:37:43;;;;;;;42.90;27.52;;;;;;;;;;5009119;28;98516;-74
2023/09/17 10:40:12;;;;;;;42.20;27.13;;;;;;;;;;5007413;28;99776;-74
2023/09/17 10:42:39;;;;;;;47.70;30.13;;;;;;;;;;5008110;28;99876;-74
2023/09/17 10:45:07;;;;;;;45.17;26.85;;;;;;;;;;5005317;28;98803;-74
2023/09/17 10:47:37;;;;;;;48.85;28.38;;;;;;;;;;5004935;28;99398;-74
2023/09/17 10:50:04;;;;;;;35.95;26.65;;;;;;;;;;5011405;28;99022;-74
2023/09/17 10:52:32;;;;;;;38.40;27.40;;;;;;;;;;5004386;28;98543;-74
2023/09/17 10:54:59;;;;;;;50.25;28.00;;;;;;;;;;5005001;28;100231;-74
2023/09/17 10:57:32;;;;;;;44.75;28.23;;;;;;;;;;5007682;28;98274;-75
2023/09/17 11:00:00;;;;;;;40.67;27.48;;;;;;;;;;5005872;28;99472;-75
2023/09/17 11:02:28;;;;;;;37.35;27.27;;;;;;;;;;5000001;28;99956;-74
2023/09/17 11:04:55;;;;;;;43.05;26.88;;;;;;;;;;5006859;28;98232;-75
2023/09/17 11:07:22;;;;;;;38.13;28.20;;;;;;;;;;5005417;28;98578;-74
2023/09/17 11:09:51;;;;;;;49.88;28.08;;;;;;;;;;5002996;28;99976;-74
2023/09/17 11:12:22;;;;;;;50.53;31.00;;;;;;;;;;5010096;28;98198;-75
2023/09/17 11:14:50;;;;;;;47.95;29.30;;;;;;;;;;5007205;28;100034;-74
2023/09/17 11:17:17;;;;;;;40.58;28.27;;;;;;;;;;5007246;28;98219;-73
2023/09/17 11:19:44;;;;;;;50.58;31.42;;;;;;;;;;5007871;28;99645;-73
2023/09/17 11:22:12;;;;;;;44.88;29.40;;;;;;;;;;5006836;28;100175;-73
2023/09/17 11:24:39;;;;;;;50.75;31.35;;;;;;;;;;5000089;28;98471;-73
2023/09/17 11:27:07;;;;;;;42.63;29.95;;;;;;;;;;5008199;28;99614;-73
2023/09/17 11:29:37;;;;;;;51.33;32.53;;;;;;;;;;5007049;28;100110;-74
2023/09/17 11:32:04;;;;;;;50.67;31.27;;;;;;;;;;5007279;28;99189;-75
2023/09/17 11:34:31;;;;;;;56.25;31.95;;;;;;;;;;5008779;28;98453;-74
2023/09/17 11:36:57;;;;;;;54.95;33.35;;;;;;;;;;5007790;28;98169;-74
2023/09/17 11:39:24;;;;;;;63.45;35.15;;;;;;;;;;5007192;28;99875;-74
2023/09/17 11:41:53;;;;;;;61.63;36.38;;;;;;;;;;5006348;28;100099;-74
2023/09/17 11:44:21;;;;;;;62.65;35.83;;;;;;;;;;5007539;28;98808;-74
2023/09/17 11:46:48;;;;;;;63.85;33.67;;;;;;;;;;5006727;28;99792;-74
2023/09/17 11:49:15;;;;;;;64.57;35.80;;;;;;;;;;5006403;28;99290;-74
2023/09/17 11:51:46;;;;;;;59.03;36.83;;;;;;;;;;5007033;28;98572;-74
2023/09/17 11:54:15;;;;;;;52.53;34.17;;;;;;;;;;5007437;28;99566;-74
2023/09/17 11:56:46;;;;;;;67.95;35.45;;;;;;;;;;5009478;28;99550;-74
2023/09/17 11:59:15;;;;;;;58.00;34.92;;;;;;;;;;5006453;28;100163;-74
2023/09/17 12:01:47;;;;;;;59.30;37.17;;;;;;;;;;5006515;28;99924;-75
2023/09/17 12:04:14;;;;;;;62.83;36.88;;;;;;;;;;5005380;28;98063;-75
2023/09/17 12:06:42;;;;;;;62.15;36.63;;;;;;;;;;5006554;28;98801;-75
2023/09/17 12:10:09;;;;;;;60.17;37.15;;;;;;;;;;5006361;28;99346;-74
2023/09/17 12:12:07;;;;;;;64.15;37.33;;;;;;;;;;4997718;27;98289;-74
2023/09/17 12:14:34;;;;;;;61.10;36.10;;;;;;;;;;5006779;28;98738;-74
2023/09/17 12:17:03;;;;;;;65.97;37.63;;;;;;;;;;5009284;28;99142;-73
2023/09/17 12:19:30;;;;;;;64.38;36.33;;;;;;;;;;5006916;28;99480;-74
2023/09/17 12:21:59;;;;;;;65.78;37.40;;;;;;;;;;5005612;28;98927;-74
2023/09/17 12:24:38;;;;;;;75.65;36.72;;;;;;;;;;5005138;28;99255;-74
2023/09/17 12:29:35;;;;;;;78.55;36.33;;;;;;;;;;5006717;28;98897;-74
2023/09/17 12:32:02;;;;;;;69.68;36.60;;;;;;;;;;5005827;28;98434;-73
2023/09/17 12:34:29;;;;;;;69.80;36.25;;;;;;;;;;5006622;28;99820;-74
2023/09/17 12:36:56;;;;;;;75.85;38.10;;;;;;;;;;5005794;28;100113;-73
2023/09/17 12:39:23;;;;;;;70.97;39.03;;;;;;;;;;5009037;28;98293;-74
2023/09/17 12:41:49;;;;;;;78.38;38.25;;;;;;;;;;5006300;28;98325;-74
2023/09/17 12:44:19;;;;;;;67.57;35.90;;;;;;;;;;4998682;28;98460;-74
2023/09/17 12:46:46;;;;;;;67.05;35.53;;;;;;;;;;5005357;28;99044;-74
2023/09/17 12:49:12;;;;;;;73.95;36.58;;;;;;;;;;5005162;28;99281;-74
2023/09/17 12:51:39;;;;;;;68.35;37.00;;;;;;;;;;4996612;28;99021;-75
2023/09/17 12:54:07;;;;;;;59.83;35.97;;;;;;;;;;5005844;28;98498;-74
2023/09/17 12:56:36;;;;;;;68.63;36.42;;;;;;;;;;5005414;28;100870;-73
2023/09/17 12:59:03;;;;;;;71.20;35.38;;;;;;;;;;5005748;28;98342;-75
2023/09/17 13:01:30;;;;;;;71.43;35.67;;;;;;;;;;5009319;28;99597;-73
2023/09/17 13:04:03;;;;;;;69.55;34.78;;;;;;;;;;5002647;28;99350;-73
2023/09/17 13:06:34;;;;;;;62.78;32.97;;;;;;;;;;4998340;28;99443;-74
2023/09/17 13:09:02;;;;;;;69.18;32.70;;;;;;;;;;5006302;28;100299;-74
2023/09/17 13:11:29;;;;;;;65.50;32.83;;;;;;;;;;5006129;28;98500;-74
2023/09/17 13:13:56;;;;;;;67.40;32.10;;;;;;;;;;5004120;28;98703;-74
2023/09/17 13:16:23;;;;;;;54.97;31.15;;;;;;;;;;5009110;28;100312;-75
2023/09/17 13:18:50;;;;;;;61.58;32.92;;;;;;;;;;5009745;28;98271;-75
2023/09/17 13:21:20;;;;;;;60.80;30.98;;;;;;;;;;5007951;28;98727;-75
2023/09/17 13:23:47;;;;;;;50.00;29.27;;;;;;;;;;5013149;28;99969;-75
2023/09/17 13:26:14;;;;;;;57.78;31.58;;;;;;;;;;5009089;28;99793;-75
2023/09/17 13:28:41;;;;;;;56.08;29.20;;;;;;;;;;5009049;28;99951;-76
2023/09/17 13:31:07;;;;;;;47.72;28.45;;;;;;;;;;5009294;28;98271;-74
2023/09/17 13:33:36;;;;;;;55.00;29.35;;;;;;;;;;5007390;28;99898;-75
2023/09/17 13:36:07;;;;;;;52.90;28.88;;;;;;;;;;5008416;28;99335;-75
2023/09/17 13:38:34;;;;;;;51.65;28.67;;;;;;;;;;5007239;28;98346;-75
2023/09/17 13:41:01;;;;;;;47.47;27.73;;;;;;;;;;5008739;28;98484;-74
2023/09/17 13:43:28;;;;;;;51.38;26.58;;;;;;;;;;5008507;28;100037;-75
2023/09/17 13:45:55;;;;;;;42.95;25.00;;;;;;;;;;5012642;28;98411;-75
2023/09/17 13:48:22;;;;;;;42.67;25.08;;;;;;;;;;5008463;28;99986;-74
2023/09/17 13:50:51;;;;;;;49.58;26.75;;;;;;;;;;5001780;28;98279;-74
2023/09/17 13:53:18;;;;;;;48.17;25.30;;;;;;;;;;5008190;28;98529;-75
2023/09/17 13:55:45;;;;;;;44.90;26.40;;;;;;;;;;5008172;28;98977;-75
2023/09/17 13:58:13;;;;;;;49.63;27.63;;;;;;;;;;5008272;28;98444;-75
2023/09/17 14:00:40;;;;;;;46.00;27.00;;;;;;;;;;5009177;28;99371;-75
2023/09/17 14:03:13;;;;;;;47.55;26.90;;;;;;;;;;5007214;28;99079;-75
2023/09/17 14:05:43;;;;;;;43.92;24.90;;;;;;;;;;5011365;28;98356;-75
2023/09/17 14:08:11;;;;;;;36.72;24.40;;;;;;;;;;5006855;28;99968;-76
2023/09/17 14:10:37;;;;;;;43.45;23.95;;;;;;;;;;5007225;28;98553;-75
2023/09/17 14:13:04;;;;;;;41.55;23.90;;;;;;;;;;5004641;28;98864;-74
2023/09/17 14:15:34;;;;;;;41.05;25.90;;;;;;;;;;5008614;28;98904;-74
2023/09/17 14:18:01;;;;;;;47.58;26.42;;;;;;;;;;5004900;28;98607;-75
2023/09/17 14:20:29;;;;;;;41.75;24.25;;;;;;;;;;5008623;28;98443;-75
2023/09/17 14:22:56;;;;;;;42.03;24.00;;;;;;;;;;5008144;28;98992;-75
2023/09/17 14:25:23;;;;;;;40.97;23.67;;;;;;;;;;5008089;28;98345;-75